« Back
NWS Peachtree City, Ga » Text Product » AHN Terminal Aerodrome Forecast


Printer-friendly Version
Current Version              Previous Versions:   1  2  3  4  5  6  7  8  9  

Terminal Aerodrome Forecast

870
FTAK31 PAJN 232300
TAFAHN
TAF
PAHN 232326Z 2400/2424 30012KT P6SM FEW050
     FM240900 30012G20KT P6SM SCT150
     FM241800 29010G18KT P6SM SKC
      AMD LTD TO CLD VIS AND WIND=



USA.gov is the U.S. government's official web portal to all federal, state and local government web resources and services.